createdAt,value
2018-04-06T00:01:56.195Z,71.83
2018-04-06T00:04:24.487Z,71.38
2018-04-06T00:06:52.868Z,71.35
2018-04-06T00:09:21.142Z,71.14
2018-04-06T00:11:49.530Z,71.05
2018-04-06T00:14:17.801Z,71.81
2018-04-06T00:16:46.105Z,73.02
2018-04-06T00:19:14.374Z,73.01
2018-04-06T00:21:42.636Z,73.21
2018-04-06T00:24:11.000Z,72.75
2018-04-06T00:26:39.284Z,72.60
2018-04-06T00:29:07.609Z,72.11
2018-04-06T00:31:35.919Z,71.75
2018-04-06T00:34:04.246Z,71.57
2018-04-06T00:36:32.486Z,71.93
2018-04-06T00:39:00.850Z,73.41
2018-04-06T00:41:29.127Z,73.55
2018-04-06T00:43:57.463Z,72.77
2018-04-06T00:46:25.806Z,72.71
2018-04-06T00:48:54.090Z,72.33
2018-04-06T00:51:22.356Z,72.56
2018-04-06T00:53:50.631Z,72.00
2018-04-06T00:56:18.893Z,71.80
2018-04-06T00:58:47.192Z,71.61
2018-04-06T01:01:15.450Z,72.03
2018-04-06T01:03:43.743Z,71.95
2018-04-06T01:06:12.023Z,71.69
2018-04-06T01:08:40.280Z,71.77
2018-04-06T01:11:08.575Z,71.24
2018-04-06T01:13:36.853Z,72.09
2018-04-06T01:16:05.660Z,72.42
2018-04-06T01:18:33.944Z,72.12
2018-04-06T01:21:02.236Z,71.92
2018-04-06T01:23:30.560Z,71.50
2018-04-06T01:25:59.167Z,71.59
2018-04-06T01:28:27.442Z,71.86
2018-04-06T01:30:55.791Z,71.66
2018-04-06T01:33:24.089Z,71.76
2018-04-06T01:35:52.372Z,71.31
2018-04-06T01:38:20.640Z,71.66
2018-04-06T01:40:49.957Z,71.79
2018-04-06T01:43:18.299Z,72.26
2018-04-06T01:45:46.575Z,73.67
2018-04-06T01:48:14.875Z,73.46
2018-04-06T01:50:43.153Z,73.12
2018-04-06T01:53:11.451Z,72.54
2018-04-06T01:55:39.719Z,72.19
2018-04-06T01:58:08.030Z,72.31
2018-04-06T02:00:36.270Z,72.27
2018-04-06T02:03:05.474Z,71.88
2018-04-06T02:05:33.785Z,72.35
2018-04-06T02:08:02.053Z,72.53
2018-04-06T02:10:30.444Z,72.79
2018-04-06T02:12:58.741Z,72.47
2018-04-06T02:15:26.995Z,72.40
2018-04-06T02:17:55.290Z,71.83
2018-04-06T02:20:24.475Z,71.33
2018-04-06T02:22:52.785Z,71.27
2018-04-06T02:25:21.064Z,71.30
2018-04-06T02:27:49.390Z,71.42
2018-04-06T02:30:17.662Z,71.67
2018-04-06T02:32:46.015Z,71.65
2018-04-06T02:35:14.273Z,71.54
2018-04-06T02:37:42.570Z,71.79
2018-04-06T02:40:10.865Z,72.47
2018-04-06T02:42:39.138Z,73.34
2018-04-06T02:45:07.446Z,73.97
2018-04-06T02:47:35.748Z,73.31
2018-04-06T02:50:05.079Z,73.05
2018-04-06T02:52:33.349Z,72.50
2018-04-06T02:55:01.839Z,73.22
2018-04-06T02:57:30.088Z,72.64
2018-04-06T02:59:58.404Z,72.73
2018-04-06T03:02:26.680Z,72.71
2018-04-06T03:04:55.122Z,73.66
2018-04-06T03:07:23.379Z,73.19
2018-04-06T03:09:51.651Z,73.55
2018-04-06T03:12:19.943Z,73.50
2018-04-06T03:14:48.233Z,73.06
2018-04-06T03:17:16.546Z,72.28
2018-04-06T03:19:44.869Z,72.12
2018-04-06T03:22:13.140Z,71.95
2018-04-06T03:24:41.430Z,71.50
2018-04-06T03:27:09.683Z,71.50
2018-04-06T03:29:37.989Z,71.92
2018-04-06T03:32:06.314Z,73.00
2018-04-06T03:34:34.565Z,73.18
2018-04-06T03:37:02.848Z,73.10
2018-04-06T03:39:31.124Z,73.99
2018-04-06T03:41:59.386Z,73.71
2018-04-06T03:44:27.673Z,73.72
2018-04-06T03:46:55.935Z,74.40
2018-04-06T03:49:24.212Z,74.11
2018-04-06T03:51:52.519Z,74.73
2018-04-06T03:54:20.882Z,74.58
2018-04-06T03:56:49.177Z,73.97
2018-04-06T03:59:17.576Z,73.71
2018-04-06T04:01:45.939Z,73.35
2018-04-06T04:04:14.213Z,73.15
2018-04-06T04:06:42.526Z,72.40
2018-04-06T04:09:10.807Z,72.34
2018-04-06T04:11:39.112Z,72.23
2018-04-06T04:14:07.396Z,72.26
2018-04-06T04:16:35.687Z,72.07
2018-04-06T04:19:03.959Z,71.98
2018-04-06T04:21:32.339Z,71.86
2018-04-06T04:24:00.616Z,71.83
2018-04-06T04:26:28.881Z,71.64
2018-04-06T04:28:57.157Z,72.60
2018-04-06T04:31:25.436Z,72.27
2018-04-06T04:33:53.700Z,72.43
2018-04-06T04:36:21.995Z,72.74
2018-04-06T04:38:50.269Z,72.44
2018-04-06T04:41:18.536Z,71.81
2018-04-06T04:43:46.813Z,71.60
2018-04-06T04:46:15.096Z,71.48
2018-04-06T04:48:43.411Z,71.62
2018-04-06T04:51:11.675Z,71.69
2018-04-06T04:53:39.943Z,71.83
2018-04-06T04:56:08.204Z,71.76
2018-04-06T04:58:36.537Z,71.64
2018-04-06T05:01:05.020Z,71.79
2018-04-06T05:03:33.297Z,72.14
2018-04-06T05:06:01.629Z,72.03
2018-04-06T05:08:29.958Z,72.22
2018-04-06T05:10:58.453Z,71.95
2018-04-06T05:13:26.754Z,71.83
2018-04-06T05:15:55.072Z,71.47
2018-04-06T05:18:23.396Z,71.41
2018-04-06T05:20:51.664Z,71.65
2018-04-06T05:23:20.144Z,71.46
2018-04-06T05:25:48.398Z,71.30
2018-04-06T05:28:16.690Z,71.27
2018-04-06T05:30:44.968Z,71.24
2018-04-06T05:33:13.274Z,71.26
2018-04-06T05:35:41.573Z,71.74
2018-04-06T05:38:09.889Z,72.10
2018-04-06T05:40:38.255Z,72.02
2018-04-06T05:43:06.528Z,71.86
2018-04-06T05:45:34.864Z,71.85
2018-04-06T05:48:03.135Z,71.61
2018-04-06T05:50:31.473Z,71.33
2018-04-06T05:52:59.701Z,71.76
2018-04-06T05:55:28.145Z,71.62
2018-04-06T05:57:56.441Z,71.50
2018-04-06T06:00:24.761Z,71.56
2018-04-06T06:02:53.696Z,71.34
2018-04-06T06:05:22.007Z,71.35
2018-04-06T06:07:50.336Z,71.37
2018-04-06T06:10:18.727Z,71.11
2018-04-06T06:12:46.997Z,70.81
2018-04-06T06:15:15.366Z,70.76
2018-04-06T06:17:43.658Z,70.58
2018-04-06T06:20:11.925Z,70.49
2018-04-06T06:22:40.237Z,70.51
2018-04-06T06:25:08.916Z,69.96
2018-04-06T06:27:37.226Z,69.85
2018-04-06T06:30:05.517Z,69.64
2018-04-06T06:32:34.758Z,69.48
2018-04-06T06:35:03.752Z,69.43
2018-04-06T06:37:32.119Z,69.20
2018-04-06T06:40:00.527Z,69.22
2018-04-06T06:42:28.836Z,69.06
2018-04-06T06:44:57.120Z,68.80
2018-04-06T06:47:25.497Z,68.30
2018-04-06T06:49:53.740Z,68.19
2018-04-06T06:52:22.100Z,67.82
2018-04-06T06:54:50.370Z,67.45
2018-04-06T06:57:19.046Z,67.35
2018-04-06T06:59:47.411Z,67.07
2018-04-06T07:02:15.767Z,66.40
2018-04-06T07:04:44.069Z,65.45
2018-04-06T07:07:12.694Z,64.86
2018-04-06T07:09:41.076Z,64.37
2018-04-06T07:12:09.344Z,64.28
2018-04-06T07:14:38.036Z,63.24
2018-04-06T07:17:06.312Z,63.63
2018-04-06T07:19:34.617Z,63.64
2018-04-06T07:22:02.865Z,63.55
2018-04-06T07:24:31.155Z,62.83
2018-04-06T07:26:59.410Z,61.91
2018-04-06T07:29:28.648Z,61.71
2018-04-06T07:31:56.956Z,61.88
2018-04-06T07:34:26.028Z,61.27
2018-04-06T07:36:54.332Z,61.30
2018-04-06T07:39:22.642Z,60.65
2018-04-06T07:41:50.910Z,60.35
2018-04-06T07:44:19.259Z,60.09
2018-04-06T07:46:47.584Z,59.88
2018-04-06T07:49:15.917Z,59.06
2018-04-06T07:51:44.239Z,59.24
2018-04-06T07:54:12.579Z,58.84
2018-04-06T07:56:40.879Z,58.97
2018-04-06T07:59:09.188Z,58.23
2018-04-06T08:01:37.510Z,58.59
2018-04-06T08:04:05.786Z,57.51
2018-04-06T08:06:34.138Z,57.82
2018-04-06T08:09:02.436Z,57.29
2018-04-06T08:11:30.760Z,57.43
2018-04-06T08:13:59.226Z,56.92
2018-04-06T08:16:27.531Z,56.37
2018-04-06T08:18:55.825Z,56.21
2018-04-06T08:21:24.137Z,55.86
2018-04-06T08:23:52.415Z,55.84
2018-04-06T08:26:20.854Z,55.60
2018-04-06T08:28:49.066Z,54.99
2018-04-06T08:31:17.775Z,54.82
2018-04-06T08:33:46.008Z,54.60
2018-04-06T08:36:14.683Z,54.24
2018-04-06T08:38:43.901Z,53.80
2018-04-06T08:41:12.280Z,53.50
2018-04-06T08:43:40.567Z,53.47
2018-04-06T08:46:08.890Z,52.59
2018-04-06T08:48:37.189Z,52.45
2018-04-06T08:51:05.515Z,52.25
2018-04-06T08:53:33.781Z,51.74
2018-04-06T08:56:02.114Z,51.74
2018-04-06T08:58:30.412Z,51.62
2018-04-06T09:00:58.843Z,50.93
2018-04-06T09:03:27.191Z,51.33
2018-04-06T09:05:55.515Z,50.47
2018-04-06T09:08:23.792Z,49.93
2018-04-06T09:10:52.085Z,49.33
2018-04-06T09:13:20.440Z,49.72
2018-04-06T09:15:48.728Z,49.47
2018-04-06T09:18:17.078Z,49.50
2018-04-06T09:20:45.405Z,49.38
2018-04-06T09:23:13.776Z,49.79
2018-04-06T09:25:42.808Z,49.34
2018-04-06T09:28:11.147Z,49.43
2018-04-06T09:30:39.468Z,48.95
2018-04-06T09:33:07.811Z,48.28
2018-04-06T09:35:38.587Z,49.10
2018-04-06T09:38:06.900Z,48.60
2018-04-06T09:40:35.211Z,48.26
2018-04-06T09:43:04.045Z,48.42
2018-04-06T09:45:32.526Z,47.46
2018-04-06T09:48:00.880Z,47.66
2018-04-06T09:50:29.212Z,47.14
2018-04-06T09:52:57.562Z,47.14
2018-04-06T09:55:25.864Z,46.45
2018-04-06T09:57:54.255Z,45.68
2018-04-06T10:00:28.003Z,45.28
2018-04-06T10:02:57.174Z,45.16
2018-04-06T10:05:25.383Z,44.22
2018-04-06T10:07:54.543Z,44.17
2018-04-06T10:10:22.810Z,42.92
2018-04-06T10:12:51.121Z,42.71
2018-04-06T10:15:19.490Z,40.90
2018-04-06T10:17:47.792Z,41.37
2018-04-06T10:20:16.089Z,41.85
2018-04-06T10:22:44.467Z,40.81
2018-04-06T10:25:12.768Z,41.06
2018-04-06T10:27:41.025Z,40.39
2018-04-06T10:30:09.317Z,39.96
2018-04-06T10:32:37.638Z,39.97
2018-04-06T10:35:06.045Z,40.39
2018-04-06T10:37:34.248Z,40.45
2018-04-06T10:40:02.758Z,40.22
2018-04-06T10:42:31.044Z,40.29
2018-04-06T10:44:59.335Z,39.43
2018-04-06T10:47:27.699Z,40.29
2018-04-06T10:49:56.058Z,40.65
2018-04-06T10:52:24.320Z,39.65
2018-04-06T10:54:53.151Z,39.66
2018-04-06T10:57:21.472Z,40.03
2018-04-06T10:59:49.829Z,39.76
2018-04-06T11:02:18.106Z,39.52
2018-04-06T11:04:46.397Z,39.07
2018-04-06T11:07:14.683Z,38.56
2018-04-06T11:09:43.030Z,39.08
2018-04-06T11:12:11.315Z,39.40
2018-04-06T11:14:39.670Z,40.11
2018-04-06T11:17:09.428Z,39.83
2018-04-06T11:19:37.730Z,39.68
2018-04-06T11:22:06.056Z,39.70
2018-04-06T11:24:34.397Z,38.63
2018-04-06T11:27:02.725Z,39.14
2018-04-06T11:29:30.987Z,39.47
2018-04-06T11:31:59.264Z,38.54
2018-04-06T11:34:27.576Z,37.84
2018-04-06T11:36:55.884Z,38.01
2018-04-06T11:39:24.285Z,38.19
2018-04-06T11:41:52.569Z,38.20
2018-04-06T11:44:20.885Z,37.20
2018-04-06T11:46:49.222Z,37.73
2018-04-06T11:49:17.499Z,37.70
2018-04-06T11:51:45.775Z,37.81
2018-04-06T11:54:14.128Z,37.44
2018-04-06T11:56:42.393Z,37.25
2018-04-06T11:59:10.652Z,37.28
2018-04-06T12:01:38.983Z,36.47
2018-04-06T12:04:07.268Z,36.20
2018-04-06T12:06:36.368Z,35.65
2018-04-06T12:09:04.625Z,36.58
2018-04-06T12:11:32.967Z,36.26
2018-04-06T12:14:01.252Z,35.89
2018-04-06T12:16:29.537Z,35.26
2018-04-06T12:18:57.884Z,34.93
2018-04-06T12:21:26.164Z,34.75
2018-04-06T12:23:54.467Z,35.48
2018-04-06T12:26:22.738Z,34.33
2018-04-06T12:28:51.072Z,34.06
2018-04-06T12:31:19.346Z,34.62
2018-04-06T12:33:47.638Z,34.48
2018-04-06T12:36:15.931Z,34.63
2018-04-06T12:38:44.244Z,34.67
2018-04-06T12:41:12.549Z,34.44
2018-04-06T12:43:40.819Z,34.16
2018-04-06T12:46:09.100Z,34.50
2018-04-06T12:48:37.389Z,34.02
2018-04-06T12:51:05.647Z,33.86
2018-04-06T12:53:33.936Z,33.81
2018-04-06T12:56:02.212Z,33.87
2018-04-06T12:58:30.512Z,34.11
2018-04-06T13:00:58.838Z,33.53
2018-04-06T13:03:27.132Z,33.91
2018-04-06T13:05:55.449Z,34.08
2018-04-06T13:08:24.199Z,34.08
2018-04-06T13:10:52.465Z,33.68
2018-04-06T13:13:20.850Z,33.24
2018-04-06T13:15:49.124Z,33.59
2018-04-06T13:18:17.410Z,33.70
2018-04-06T13:20:45.680Z,33.45
2018-04-06T13:23:14.793Z,33.28
2018-04-06T13:25:43.093Z,32.90
2018-04-06T13:28:11.342Z,32.34
2018-04-06T13:30:39.624Z,32.51
2018-04-06T13:33:07.952Z,32.28
2018-04-06T13:35:36.259Z,32.37
2018-04-06T13:38:05.322Z,32.85
2018-04-06T13:40:33.640Z,32.65
2018-04-06T13:43:01.907Z,32.32
2018-04-06T13:45:31.030Z,31.75
2018-04-06T13:47:59.288Z,31.49
2018-04-06T13:50:27.648Z,31.69
2018-04-06T13:52:55.889Z,31.66
2018-04-06T13:55:24.200Z,30.98
2018-04-06T13:57:52.472Z,30.05
2018-04-06T14:00:20.857Z,31.46
2018-04-06T14:02:49.108Z,30.41
2018-04-06T14:05:17.441Z,30.40
2018-04-06T14:07:45.781Z,30.26
2018-04-06T14:10:14.057Z,30.04
2018-04-06T14:12:42.423Z,30.15
2018-04-06T14:15:10.730Z,29.89
2018-04-06T14:17:38.989Z,28.47
2018-04-06T14:20:07.253Z,28.80
2018-04-06T14:22:35.646Z,28.81
2018-04-06T14:25:04.460Z,29.05
2018-04-06T14:27:32.776Z,28.82
2018-04-06T14:30:01.048Z,28.67
2018-04-06T14:32:29.366Z,29.04
2018-04-06T14:34:57.637Z,29.07
2018-04-06T14:37:25.977Z,28.98
2018-04-06T14:39:54.268Z,28.83
2018-04-06T14:42:22.587Z,28.87
2018-04-06T14:44:50.888Z,28.26
2018-04-06T14:47:19.365Z,28.04
2018-04-06T14:49:47.630Z,28.29
2018-04-06T14:52:15.988Z,27.51
2018-04-06T14:54:44.254Z,27.57
2018-04-06T14:57:12.740Z,27.70
2018-04-06T14:59:41.043Z,28.23
2018-04-06T15:02:09.349Z,27.61
2018-04-06T15:04:37.654Z,28.02
2018-04-06T15:07:05.984Z,27.65
2018-04-06T15:09:34.287Z,27.24
2018-04-06T15:12:04.481Z,27.19
2018-04-06T15:14:32.906Z,26.78
2018-04-06T15:17:02.169Z,26.82
2018-04-06T15:19:30.467Z,26.50
2018-04-06T15:21:58.731Z,26.51
2018-04-06T15:24:27.024Z,26.46
2018-04-06T15:26:55.292Z,26.82
2018-04-06T15:29:23.629Z,27.32
2018-04-06T15:31:51.929Z,26.90
2018-04-06T15:34:21.273Z,26.40
2018-04-06T15:36:49.619Z,26.31
2018-04-06T15:39:18.579Z,25.96
2018-04-06T15:41:46.876Z,26.47
2018-04-06T15:44:15.190Z,25.92
2018-04-06T15:46:43.507Z,26.60
2018-04-06T15:49:11.777Z,25.78
2018-04-06T15:51:40.072Z,26.13
2018-04-06T15:54:08.352Z,25.53
2018-04-06T15:56:36.768Z,25.20
2018-04-06T15:59:05.012Z,25.63
2018-04-06T16:01:33.304Z,25.57
2018-04-06T16:04:01.602Z,26.07
2018-04-06T16:06:30.198Z,26.14
2018-04-06T16:08:58.496Z,25.36
2018-04-06T16:11:26.781Z,26.49
2018-04-06T16:13:55.066Z,27.68
2018-04-06T16:16:23.387Z,28.58
2018-04-06T16:18:51.688Z,28.07
2018-04-06T16:21:20.086Z,27.17
2018-04-06T16:23:48.368Z,27.07
2018-04-06T16:26:16.642Z,25.92
2018-04-06T16:28:44.940Z,25.49
2018-04-06T16:31:13.280Z,25.02
2018-04-06T16:33:41.639Z,25.74
2018-04-06T16:36:10.304Z,24.95
2018-04-06T16:38:38.600Z,24.59
2018-04-06T16:41:06.962Z,25.37
2018-04-06T16:43:35.293Z,24.90
2018-04-06T16:46:03.660Z,25.46
2018-04-06T16:48:31.969Z,25.13
2018-04-06T16:51:00.276Z,25.52
2018-04-06T16:53:28.608Z,25.49
2018-04-06T16:55:56.912Z,25.46
2018-04-06T16:58:25.212Z,25.29
2018-04-06T17:00:53.505Z,25.81
2018-04-06T17:03:21.821Z,25.08
2018-04-06T17:05:50.146Z,25.12
2018-04-06T17:08:18.423Z,25.14
2018-04-06T17:10:46.798Z,25.06
2018-04-06T17:13:15.298Z,25.64
2018-04-06T17:15:43.807Z,26.30
2018-04-06T17:18:12.305Z,27.38
2018-04-06T17:20:40.648Z,27.88
2018-04-06T17:23:08.923Z,28.65
2018-04-06T17:25:37.264Z,29.67
2018-04-06T17:28:05.822Z,29.79
2018-04-06T17:30:34.130Z,30.19
2018-04-06T17:33:02.429Z,30.37
2018-04-06T17:35:30.725Z,30.70
2018-04-06T17:37:58.985Z,30.93
2018-04-06T17:40:27.295Z,31.18
2018-04-06T17:42:55.615Z,31.42
2018-04-06T17:45:23.921Z,31.89
2018-04-06T17:47:52.196Z,31.33
2018-04-06T17:50:20.554Z,31.56
2018-04-06T17:52:48.967Z,31.79
2018-04-06T17:55:17.304Z,32.36
2018-04-06T17:57:45.605Z,32.54
2018-04-06T18:00:14.073Z,32.46
2018-04-06T18:02:42.712Z,32.92
2018-04-06T18:05:14.319Z,32.96
2018-04-06T18:07:42.637Z,33.00
2018-04-06T18:10:10.888Z,33.41
2018-04-06T18:12:39.179Z,33.67
2018-04-06T18:15:07.466Z,34.20
2018-04-06T18:17:35.777Z,34.60
2018-04-06T18:20:04.084Z,34.85
2018-04-06T18:22:32.454Z,35.13
2018-04-06T18:25:00.705Z,35.57
2018-04-06T18:27:29.084Z,35.85
2018-04-06T18:29:57.357Z,36.21
2018-04-06T18:32:25.724Z,36.59
2018-04-06T18:34:54.019Z,36.82
2018-04-06T18:37:22.316Z,36.96
2018-04-06T18:39:50.602Z,37.23
2018-04-06T18:42:19.865Z,37.07
2018-04-06T18:44:48.207Z,37.72
2018-04-06T18:47:16.488Z,37.96
2018-04-06T18:49:44.756Z,38.32
2018-04-06T18:52:13.062Z,38.22
2018-04-06T18:54:41.367Z,38.55
2018-04-06T18:57:09.693Z,38.88
2018-04-06T18:59:37.964Z,39.21
2018-04-06T19:02:06.262Z,39.60
2018-04-06T19:04:34.558Z,39.93
2018-04-06T19:07:03.073Z,40.22
2018-04-06T19:09:31.391Z,40.46
2018-04-06T19:11:59.696Z,40.80
2018-04-06T19:14:28.049Z,40.77
2018-04-06T19:16:56.442Z,40.87
2018-04-06T19:19:25.460Z,41.11
2018-04-06T19:21:53.716Z,41.38
2018-04-06T19:24:22.085Z,41.29
2018-04-06T19:26:50.363Z,41.19
2018-04-06T19:29:18.654Z,41.53
2018-04-06T19:31:46.940Z,41.47
2018-04-06T19:34:15.227Z,41.27
2018-04-06T19:36:43.513Z,41.46
2018-04-06T19:39:11.810Z,41.58
2018-04-06T19:41:40.187Z,41.85
2018-04-06T19:44:08.470Z,42.01
2018-04-06T19:46:36.839Z,41.92
2018-04-06T19:49:05.128Z,41.79
2018-04-06T19:51:33.432Z,42.00
2018-04-06T19:54:01.742Z,41.92
2018-04-06T19:56:30.017Z,41.97
2018-04-06T19:58:58.360Z,41.73
2018-04-06T20:01:26.654Z,41.96
2018-04-06T20:03:54.978Z,42.12
2018-04-06T20:06:23.413Z,42.31
2018-04-06T20:08:51.746Z,42.23
2018-04-06T20:11:20.101Z,42.42
2018-04-06T20:13:48.362Z,42.39
2018-04-06T20:16:17.431Z,42.51
2018-04-06T20:18:45.723Z,42.52
2018-04-06T20:21:14.062Z,42.30
2018-04-06T20:23:42.340Z,42.36
2018-04-06T20:26:10.642Z,42.44
2018-04-06T20:28:39.176Z,42.34
2018-04-06T20:31:07.505Z,42.02
2018-04-06T20:33:35.785Z,41.88
2018-04-06T20:36:04.110Z,41.81
2018-04-06T20:38:32.410Z,42.03
2018-04-06T20:41:00.714Z,42.09
2018-04-06T20:43:28.988Z,42.04
2018-04-06T20:45:57.295Z,42.16
2018-04-06T20:48:27.174Z,42.16
2018-04-06T20:50:55.483Z,42.13
2018-04-06T20:53:23.769Z,42.29
2018-04-06T20:55:52.047Z,42.23
2018-04-06T20:58:20.390Z,42.34
2018-04-06T21:00:48.718Z,42.30
2018-04-06T21:03:18.093Z,42.27
2018-04-06T21:05:46.354Z,42.38
2018-04-06T21:08:14.671Z,42.33
2018-04-06T21:10:42.923Z,42.29
2018-04-06T21:13:11.290Z,42.36
2018-04-06T21:15:39.548Z,42.54
2018-04-06T21:18:08.293Z,42.43
2018-04-06T21:20:36.563Z,42.68
2018-04-06T21:23:05.227Z,42.81
2018-04-06T21:25:33.544Z,42.73
2018-04-06T21:28:01.833Z,42.89
2018-04-06T21:30:32.675Z,43.11
2018-04-06T21:33:00.957Z,43.12
2018-04-06T21:35:29.257Z,43.32
2018-04-06T21:37:57.662Z,43.55
2018-04-06T21:40:25.979Z,43.62
2018-04-06T21:42:54.304Z,43.73
2018-04-06T21:45:22.598Z,43.65
2018-04-06T21:47:50.983Z,44.10
2018-04-06T21:50:19.312Z,44.11
2018-04-06T21:52:47.764Z,44.18
2018-04-06T21:55:16.086Z,44.29
2018-04-06T21:57:44.374Z,44.38
2018-04-06T22:00:12.663Z,44.71
2018-04-06T22:02:40.933Z,44.81
2018-04-06T22:05:09.251Z,45.01
2018-04-06T22:07:37.584Z,44.83
2018-04-06T22:10:05.864Z,44.95
2018-04-06T22:12:34.144Z,44.94
2018-04-06T22:15:02.481Z,45.06
2018-04-06T22:17:30.728Z,45.12
2018-04-06T22:19:59.047Z,45.44
2018-04-06T22:22:27.346Z,45.27
2018-04-06T22:24:55.699Z,45.51
2018-04-06T22:27:24.017Z,45.64
2018-04-06T22:29:52.364Z,45.99
2018-04-06T22:32:20.655Z,46.00
2018-04-06T22:34:49.040Z,45.96
2018-04-06T22:37:17.341Z,46.23
2018-04-06T22:39:45.624Z,46.25
2018-04-06T22:42:14.012Z,46.35
2018-04-06T22:44:42.284Z,46.76
2018-04-06T22:47:10.547Z,46.68
2018-04-06T22:49:38.868Z,46.72
2018-04-06T22:52:08.914Z,46.57
2018-04-06T22:54:37.173Z,46.75
2018-04-06T22:57:05.608Z,46.79
2018-04-06T22:59:33.871Z,47.16
2018-04-06T23:02:02.216Z,47.04
2018-04-06T23:04:30.505Z,47.28
2018-04-06T23:06:58.861Z,47.27
2018-04-06T23:09:27.175Z,47.33
2018-04-06T23:11:55.559Z,47.54
2018-04-06T23:14:23.845Z,47.66
2018-04-06T23:16:52.181Z,47.84
2018-04-06T23:19:20.448Z,47.95
2018-04-06T23:21:48.794Z,47.71
2018-04-06T23:24:17.118Z,47.67
2018-04-06T23:26:45.429Z,47.68
2018-04-06T23:29:13.954Z,47.78
2018-04-06T23:31:42.243Z,47.97
2018-04-06T23:34:10.512Z,47.94
2018-04-06T23:36:38.798Z,48.10
2018-04-06T23:39:07.080Z,48.34
2018-04-06T23:41:35.419Z,48.35
2018-04-06T23:44:03.664Z,48.23
2018-04-06T23:46:31.950Z,48.30
2018-04-06T23:49:00.264Z,48.58
2018-04-06T23:51:28.524Z,48.69
2018-04-06T23:53:56.807Z,48.67
2018-04-06T23:56:25.085Z,48.82
2018-04-06T23:58:53.396Z,49.19
